Wakefield, Mississippi
Current Conditions -  °F | °C
As of 6:15 PM on Saturday 22 Nov 2014 (Local Time) from KUTA Reporting Station
Clear Clear  
Wind Chill: 13°   Ceiling: Unl
Heat Index: 13°   Visibility: 10mi
Dew Point:   Wind: 6mph
Humidity: 67%   Direction: 100°E
Pressure: 30.04"   Gusts: NA
Location:  34.6957°N, 90.0062°W
Report Text: KUTA 230015Z AUTO 10005KT 10SM CLR 13/07 A3004 RMK AO2
Loading
Personal Weather Stations






























Interactive Weather Map New forecast layout! Learn more

10-Day Weather Forecast

Advertisements
Track Severe Weather on mobile